sensor_id;sensor_type;location;lat;lon;timestamp;pressure;altitude;pressure_sealevel;temperature;humidity
11415;BME280;5763;42.714;23.244;2023-02-14T00:01:38;95983.28;;;3.84;59.58
11415;BME280;5763;42.714;23.244;2023-02-14T00:04:05;95976.38;;;3.90;59.57
11415;BME280;5763;42.714;23.244;2023-02-14T00:06:32;95984.81;;;3.82;59.64
11415;BME280;5763;42.714;23.244;2023-02-14T00:09:00;95973.16;;;3.78;59.75
11415;BME280;5763;42.714;23.244;2023-02-14T00:11:27;95976.31;;;3.80;59.88
11415;BME280;5763;42.714;23.244;2023-02-14T00:13:54;95985.22;;;3.84;59.78
11415;BME280;5763;42.714;23.244;2023-02-14T00:16:40;95977.81;;;3.77;60.11
11415;BME280;5763;42.714;23.244;2023-02-14T00:19:08;95993.72;;;3.82;60.27
11415;BME280;5763;42.714;23.244;2023-02-14T00:21:38;95993.25;;;3.73;60.40
11415;BME280;5763;42.714;23.244;2023-02-14T00:24:08;95979.75;;;3.80;60.45
11415;BME280;5763;42.714;23.244;2023-02-14T00:26:35;95976.38;;;3.90;60.77
11415;BME280;5763;42.714;23.244;2023-02-14T00:29:03;95979.88;;;3.94;60.73
11415;BME280;5763;42.714;23.244;2023-02-14T00:31:30;95984.13;;;3.92;61.18
11415;BME280;5763;42.714;23.244;2023-02-14T00:33:58;95971.75;;;3.91;61.46
11415;BME280;5763;42.714;23.244;2023-02-14T00:36:25;95972.56;;;3.95;61.23
11415;BME280;5763;42.714;23.244;2023-02-14T00:38:52;95984.22;;;4.02;61.26
11415;BME280;5763;42.714;23.244;2023-02-14T00:41:19;95972.97;;;4.04;61.21
11415;BME280;5763;42.714;23.244;2023-02-14T00:43:47;95981.19;;;4.14;60.96
11415;BME280;5763;42.714;23.244;2023-02-14T00:46:15;95969.09;;;4.01;61.04
11415;BME280;5763;42.714;23.244;2023-02-14T00:48:42;95984.25;;;4.09;60.95
11415;BME280;5763;42.714;23.244;2023-02-14T00:51:11;95967.25;;;4.12;60.85
11415;BME280;5763;42.714;23.244;2023-02-14T00:53:38;95959.91;;;4.16;60.95
11415;BME280;5763;42.714;23.244;2023-02-14T00:56:05;95963.06;;;4.22;60.53
11415;BME280;5763;42.714;23.244;2023-02-14T00:58:32;95965.78;;;4.25;60.35
11415;BME280;5763;42.714;23.244;2023-02-14T01:00:59;95958.81;;;4.24;60.57
11415;BME280;5763;42.714;23.244;2023-02-14T01:03:26;95954.13;;;4.21;60.66
11415;BME280;5763;42.714;23.244;2023-02-14T01:05:53;95954.97;;;4.29;60.63
11415;BME280;5763;42.714;23.244;2023-02-14T01:08:22;95961.94;;;4.30;60.29
11415;BME280;5763;42.714;23.244;2023-02-14T01:10:49;95958.84;;;4.31;60.38
11415;BME280;5763;42.714;23.244;2023-02-14T01:13:17;95956.09;;;4.21;60.31
11415;BME280;5763;42.714;23.244;2023-02-14T01:15:46;95948.78;;;4.25;60.74
11415;BME280;5763;42.714;23.244;2023-02-14T01:18:14;95949.47;;;4.15;60.75
11415;BME280;5763;42.714;23.244;2023-02-14T01:20:41;95930.47;;;4.11;60.92
11415;BME280;5763;42.714;23.244;2023-02-14T01:23:08;95956.03;;;4.14;60.79
11415;BME280;5763;42.714;23.244;2023-02-14T01:25:37;95940.13;;;4.09;61.03
11415;BME280;5763;42.714;23.244;2023-02-14T01:28:05;95939.38;;;4.08;61.09
11415;BME280;5763;42.714;23.244;2023-02-14T01:30:32;95934.69;;;4.02;61.22
11415;BME280;5763;42.714;23.244;2023-02-14T01:32:59;95932.31;;;3.97;61.47
11415;BME280;5763;42.714;23.244;2023-02-14T01:35:26;95939.34;;;4.05;61.37
11415;BME280;5763;42.714;23.244;2023-02-14T01:37:53;95933.16;;;4.04;61.51
11415;BME280;5763;42.714;23.244;2023-02-14T01:40:20;95926.91;;;3.97;61.57
11415;BME280;5763;42.714;23.244;2023-02-14T01:42:48;95918.06;;;4.03;61.50
11415;BME280;5763;42.714;23.244;2023-02-14T01:45:18;95914.53;;;3.99;61.33
11415;BME280;5763;42.714;23.244;2023-02-14T01:47:48;95915.00;;;4.08;60.98
11415;BME280;5763;42.714;23.244;2023-02-14T01:50:22;95909.59;;;4.08;61.14
11415;BME280;5763;42.714;23.244;2023-02-14T01:52:54;95905.34;;;4.11;60.83
11415;BME280;5763;42.714;23.244;2023-02-14T01:55:26;95908.41;;;4.09;60.90
11415;BME280;5763;42.714;23.244;2023-02-14T01:57:59;95898.75;;;4.12;61.03
11415;BME280;5763;42.714;23.244;2023-02-14T02:00:27;95900.66;;;4.08;60.80
11415;BME280;5763;42.714;23.244;2023-02-14T02:03:12;95897.19;;;4.07;61.12
11415;BME280;5763;42.714;23.244;2023-02-14T02:05:41;95911.91;;;4.10;60.92
11415;BME280;5763;42.714;23.244;2023-02-14T02:08:10;95904.56;;;4.14;61.01
11415;BME280;5763;42.714;23.244;2023-02-14T02:10:37;95899.84;;;4.00;60.87
11415;BME280;5763;42.714;23.244;2023-02-14T02:13:07;95909.16;;;4.06;60.90
11415;BME280;5763;42.714;23.244;2023-02-14T02:15:38;95887.09;;;3.97;61.04
11415;BME280;5763;42.714;23.244;2023-02-14T02:18:10;95898.72;;;4.05;61.15
11415;BME280;5763;42.714;23.244;2023-02-14T02:24:10;95901.09;;;4.10;61.01
11415;BME280;5763;42.714;23.244;2023-02-14T02:27:03;95897.16;;;4.04;60.99
11415;BME280;5763;42.714;23.244;2023-02-14T02:33:11;95870.50;;;4.09;60.64
11415;BME280;5763;42.714;23.244;2023-02-14T02:36:11;95884.84;;;4.10;60.91
11415;BME280;5763;42.714;23.244;2023-02-14T02:38:58;95870.94;;;4.15;60.86
11415;BME280;5763;42.714;23.244;2023-02-14T02:41:38;95863.19;;;4.20;60.42
11415;BME280;5763;42.714;23.244;2023-02-14T02:44:16;95865.91;;;4.17;60.19
11415;BME280;5763;42.714;23.244;2023-02-14T02:46:51;95836.03;;;3.99;60.16
11415;BME280;5763;42.714;23.244;2023-02-14T02:49:25;95877.13;;;4.19;59.97
11415;BME280;5763;42.714;23.244;2023-02-14T02:52:19;95870.16;;;4.21;59.84
11415;BME280;5763;42.714;23.244;2023-02-14T02:55:12;95882.13;;;4.10;60.30
11415;BME280;5763;42.714;23.244;2023-02-14T02:57:42;95874.34;;;4.05;60.26
11415;BME280;5763;42.714;23.244;2023-02-14T03:00:11;95875.94;;;4.13;60.46
11415;BME280;5763;42.714;23.244;2023-02-14T03:02:41;95868.97;;;4.08;60.15
11415;BME280;5763;42.714;23.244;2023-02-14T03:05:27;95871.25;;;4.06;60.60
11415;BME280;5763;42.714;23.244;2023-02-14T03:07:56;95874.38;;;4.08;60.40
11415;BME280;5763;42.714;23.244;2023-02-14T03:10:24;95881.72;;;4.11;60.26
11415;BME280;5763;42.714;23.244;2023-02-14T03:13:22;95878.28;;;4.14;60.28
11415;BME280;5763;42.714;23.244;2023-02-14T03:16:23;95867.81;;;4.13;60.35
11415;BME280;5763;42.714;23.244;2023-02-14T03:21:51;95856.19;;;4.09;60.57
11415;BME280;5763;42.714;23.244;2023-02-14T03:24:24;95859.66;;;4.06;60.42
11415;BME280;5763;42.714;23.244;2023-02-14T03:27:00;95850.75;;;4.05;60.62
11415;BME280;5763;42.714;23.244;2023-02-14T03:29:35;95839.53;;;4.00;60.86
11415;BME280;5763;42.714;23.244;2023-02-14T03:32:12;95840.28;;;4.00;60.86
11415;BME280;5763;42.714;23.244;2023-02-14T03:34:46;95827.47;;;3.94;61.02
11415;BME280;5763;42.714;23.244;2023-02-14T03:37:18;95832.13;;;3.93;60.63
11415;BME280;5763;42.714;23.244;2023-02-14T03:39:53;95846.41;;;3.90;60.60
11415;BME280;5763;42.714;23.244;2023-02-14T03:42:26;95847.22;;;3.94;60.54
11415;BME280;5763;42.714;23.244;2023-02-14T03:44:55;95855.38;;;4.01;60.47
11415;BME280;5763;42.714;23.244;2023-02-14T03:47:25;95844.16;;;3.99;60.65
11415;BME280;5763;42.714;23.244;2023-02-14T03:49:58;95835.56;;;3.87;60.56
11415;BME280;5763;42.714;23.244;2023-02-14T03:52:28;95842.94;;;3.90;60.65
11415;BME280;5763;42.714;23.244;2023-02-14T03:54:59;95835.59;;;3.90;60.74
11415;BME280;5763;42.714;23.244;2023-02-14T03:57:32;95835.94;;;3.82;60.90
11415;BME280;5763;42.714;23.244;2023-02-14T04:00:03;95814.25;;;3.78;60.84
11415;BME280;5763;42.714;23.244;2023-02-14T04:02:33;95822.81;;;3.84;60.54
11415;BME280;5763;42.714;23.244;2023-02-14T04:05:05;95820.06;;;3.80;60.64
11415;BME280;5763;42.714;23.244;2023-02-14T04:07:43;95822.81;;;3.84;60.81
11415;BME280;5763;42.714;23.244;2023-02-14T04:10:12;95822.03;;;3.87;60.57
11415;BME280;5763;42.714;23.244;2023-02-14T04:12:39;95817.41;;;3.87;60.84
11415;BME280;5763;42.714;23.244;2023-02-14T04:15:07;95821.22;;;3.83;60.61
11415;BME280;5763;42.714;23.244;2023-02-14T04:17:34;95823.94;;;3.83;60.69
11415;BME280;5763;42.714;23.244;2023-02-14T04:20:19;95822.75;;;3.80;60.52
11415;BME280;5763;42.714;23.244;2023-02-14T04:22:46;95816.59;;;3.83;60.52
11415;BME280;5763;42.714;23.244;2023-02-14T04:25:14;95815.81;;;3.79;60.65
11415;BME280;5763;42.714;23.244;2023-02-14T04:27:41;95806.94;;;3.79;60.67
11415;BME280;5763;42.714;23.244;2023-02-14T04:30:09;95817.34;;;3.80;60.47
11415;BME280;5763;42.714;23.244;2023-02-14T04:32:37;95821.59;;;3.78;60.21
11415;BME280;5763;42.714;23.244;2023-02-14T04:35:05;95816.94;;;3.71;60.43
11415;BME280;5763;42.714;23.244;2023-02-14T04:37:32;95816.94;;;3.71;60.57
11415;BME280;5763;42.714;23.244;2023-02-14T04:39:59;95817.66;;;3.65;60.45
11415;BME280;5763;42.714;23.244;2023-02-14T04:42:27;95816.47;;;3.59;61.06
11415;BME280;5763;42.714;23.244;2023-02-14T04:44:54;95805.59;;;3.55;60.76
11415;BME280;5763;42.714;23.244;2023-02-14T04:47:21;95798.28;;;3.59;60.85
11415;BME280;5763;42.714;23.244;2023-02-14T04:49:47;95797.88;;;3.54;61.10
11415;BME280;5763;42.714;23.244;2023-02-14T04:52:14;95780.03;;;3.46;60.89
11415;BME280;5763;42.714;23.244;2023-02-14T04:54:41;95790.16;;;3.59;60.93
11415;BME280;5763;42.714;23.244;2023-02-14T04:57:08;95778.94;;;3.54;60.87
11415;BME280;5763;42.714;23.244;2023-02-14T04:59:36;95789.44;;;3.62;60.88
11415;BME280;5763;42.714;23.244;2023-02-14T05:02:03;95792.16;;;3.66;60.77
11415;BME280;5763;42.714;23.244;2023-02-14T05:04:30;95799.53;;;3.72;60.56
11415;BME280;5763;42.714;23.244;2023-02-14T05:06:57;95796.06;;;3.75;60.28
11415;BME280;5763;42.714;23.244;2023-02-14T05:09:24;95789.50;;;3.76;60.43
11415;BME280;5763;42.714;23.244;2023-02-14T05:11:51;95796.13;;;3.89;59.96
11415;BME280;5763;42.714;23.244;2023-02-14T05:14:18;95792.97;;;3.77;59.93
11415;BME280;5763;42.714;23.244;2023-02-14T05:16:46;95792.94;;;3.70;59.84
11415;BME280;5763;42.714;23.244;2023-02-14T05:19:13;95792.22;;;3.80;60.28
11415;BME280;5763;42.714;23.244;2023-02-14T05:21:39;95792.94;;;3.70;60.11
11415;BME280;5763;42.714;23.244;2023-02-14T05:24:06;95786.00;;;3.69;60.27
11415;BME280;5763;42.714;23.244;2023-02-14T05:26:33;95789.06;;;3.67;60.31
11415;BME280;5763;42.714;23.244;2023-02-14T05:29:00;95796.78;;;3.65;60.50
11415;BME280;5763;42.714;23.244;2023-02-14T05:31:27;95796.78;;;3.65;60.63
11415;BME280;5763;42.714;23.244;2023-02-14T05:33:55;95793.31;;;3.68;60.63
11415;BME280;5763;42.714;23.244;2023-02-14T05:36:21;95796.03;;;3.68;60.53
11415;BME280;5763;42.714;23.244;2023-02-14T05:38:48;95797.56;;;3.69;60.70
11415;BME280;5763;42.714;23.244;2023-02-14T05:41:15;95796.00;;;3.61;60.70
11415;BME280;5763;42.714;23.244;2023-02-14T05:43:42;95772.75;;;3.53;61.06
11415;BME280;5763;42.714;23.244;2023-02-14T05:46:08;95792.13;;;3.59;60.89
11415;BME280;5763;42.714;23.244;2023-02-14T05:48:35;95781.72;;;3.68;60.77
11415;BME280;5763;42.714;23.244;2023-02-14T05:51:05;95784.03;;;3.69;60.57
11415;BME280;5763;42.714;23.244;2023-02-14T05:53:32;95778.19;;;3.60;60.95
11415;BME280;5763;42.714;23.244;2023-02-14T05:55:59;95781.38;;;3.76;60.74
11415;BME280;5763;42.714;23.244;2023-02-14T05:58:26;95790.28;;;3.80;60.51
11415;BME280;5763;42.714;23.244;2023-02-14T06:00:52;95790.28;;;3.77;60.80
11415;BME280;5763;42.714;23.244;2023-02-14T06:03:20;95793.03;;;3.84;60.38
11415;BME280;5763;42.714;23.244;2023-02-14T06:05:46;95780.25;;;3.84;60.51
11415;BME280;5763;42.714;23.244;2023-02-14T06:08:14;95799.63;;;3.93;60.43
11415;BME280;5763;42.714;23.244;2023-02-14T06:10:41;95788.78;;;3.90;60.46
11415;BME280;5763;42.714;23.244;2023-02-14T06:13:08;95801.53;;;3.89;60.55
11415;BME280;5763;42.714;23.244;2023-02-14T06:15:36;95796.56;;;3.95;60.60
11415;BME280;5763;42.714;23.244;2023-02-14T06:18:04;95795.47;;;4.10;60.13
11415;BME280;5763;42.714;23.244;2023-02-14T06:20:31;95796.28;;;4.17;59.77
11415;BME280;5763;42.714;23.244;2023-02-14T06:22:58;95791.22;;;4.16;60.04
11415;BME280;5763;42.714;23.244;2023-02-14T06:25:26;95800.16;;;4.20;59.79
11415;BME280;5763;42.714;23.244;2023-02-14T06:27:55;95801.69;;;4.17;59.90
11415;BME280;5763;42.714;23.244;2023-02-14T06:30:23;95809.47;;;4.29;59.76
11415;BME280;5763;42.714;23.244;2023-02-14T06:32:50;95801.31;;;4.22;60.04
11415;BME280;5763;42.714;23.244;2023-02-14T06:35:17;95806.72;;;4.22;60.23
11415;BME280;5763;42.714;23.244;2023-02-14T06:37:44;95795.47;;;4.20;60.33
11415;BME280;5763;42.714;23.244;2023-02-14T06:40:12;95789.69;;;4.22;60.24
11415;BME280;5763;42.714;23.244;2023-02-14T06:42:40;95798.63;;;4.33;60.16
11415;BME280;5763;42.714;23.244;2023-02-14T06:45:08;95805.22;;;4.42;60.11
11415;BME280;5763;42.714;23.244;2023-02-14T06:47:35;95795.22;;;4.57;59.87
11415;BME280;5763;42.714;23.244;2023-02-14T06:50:02;95792.50;;;4.67;59.72
11415;BME280;5763;42.714;23.244;2023-02-14T06:52:30;95785.94;;;4.72;59.59
11415;BME280;5763;42.714;23.244;2023-02-14T06:54:57;95789.78;;;4.71;59.60
11415;BME280;5763;42.714;23.244;2023-02-14T06:57:23;95785.53;;;4.70;59.82
11415;BME280;5763;42.714;23.244;2023-02-14T06:59:52;95780.13;;;4.73;59.97
11415;BME280;5763;42.714;23.244;2023-02-14T07:02:19;95767.72;;;4.65;59.91
11415;BME280;5763;42.714;23.244;2023-02-14T07:04:45;95787.91;;;4.82;59.87
11415;BME280;5763;42.714;23.244;2023-02-14T07:07:12;95775.50;;;4.88;60.09
11415;BME280;5763;42.714;23.244;2023-02-14T07:09:39;95762.34;;;4.83;60.61
11415;BME280;5763;42.714;23.244;2023-02-14T07:12:06;95774.72;;;4.91;60.68
11415;BME280;5763;42.714;23.244;2023-02-14T07:14:33;95757.66;;;4.83;61.40
11415;BME280;5763;42.714;23.244;2023-02-14T07:17:01;95780.16;;;4.80;62.02
11415;BME280;5763;42.714;23.244;2023-02-14T07:19:28;95775.06;;;4.65;63.16
11415;BME280;5763;42.714;23.244;2023-02-14T07:21:55;95783.22;;;4.58;63.51
11415;BME280;5763;42.714;23.244;2023-02-14T07:24:22;95780.09;;;4.52;64.27
11415;BME280;5763;42.714;23.244;2023-02-14T07:26:48;95777.38;;;4.49;64.91
11415;BME280;5763;42.714;23.244;2023-02-14T07:29:15;95784.72;;;4.38;65.72
11415;BME280;5763;42.714;23.244;2023-02-14T07:31:42;95784.34;;;4.39;66.00
11415;BME280;5763;42.714;23.244;2023-02-14T07:34:10;95790.13;;;4.41;65.93
11415;BME280;5763;42.714;23.244;2023-02-14T07:36:37;95782.00;;;4.45;66.07
11415;BME280;5763;42.714;23.244;2023-02-14T07:39:04;95775.44;;;4.49;66.50
11415;BME280;5763;42.714;23.244;2023-02-14T07:41:31;95777.41;;;4.56;66.21
11415;BME280;5763;42.714;23.244;2023-02-14T07:43:58;95780.88;;;4.56;66.39
11415;BME280;5763;42.714;23.244;2023-02-14T07:46:24;95787.09;;;4.53;66.54
11415;BME280;5763;42.714;23.244;2023-02-14T07:48:51;95773.13;;;4.41;66.37
11415;BME280;5763;42.714;23.244;2023-02-14T07:51:19;95794.06;;;4.65;66.23
11415;BME280;5763;42.714;23.244;2023-02-14T07:53:46;95795.22;;;4.71;66.20
11415;BME280;5763;42.714;23.244;2023-02-14T07:56:13;95791.38;;;4.68;66.07
11415;BME280;5763;42.714;23.244;2023-02-14T07:58:40;95795.22;;;4.67;66.19
11415;BME280;5763;42.714;23.244;2023-02-14T08:01:07;95805.69;;;4.72;66.12
11415;BME280;5763;42.714;23.244;2023-02-14T08:03:33;95799.09;;;4.70;66.33
11415;BME280;5763;42.714;23.244;2023-02-14T08:06:00;95810.34;;;4.68;66.14
11415;BME280;5763;42.714;23.244;2023-02-14T08:08:30;95820.78;;;4.63;66.33
11415;BME280;5763;42.714;23.244;2023-02-14T08:10:57;95816.16;;;4.63;66.40
11415;BME280;5763;42.714;23.244;2023-02-14T08:13:24;95815.75;;;4.65;66.53
11415;BME280;5763;42.714;23.244;2023-02-14T08:15:51;95819.59;;;4.57;66.72
11415;BME280;5763;42.714;23.244;2023-02-14T08:18:35;95820.00;;;4.62;66.60
11415;BME280;5763;42.714;23.244;2023-02-14T08:21:03;95809.56;;;4.64;66.34
11415;BME280;5763;42.714;23.244;2023-02-14T08:23:32;95818.06;;;4.66;66.67
11415;BME280;5763;42.714;23.244;2023-02-14T08:25:59;95821.94;;;4.65;66.61
11415;BME280;5763;42.714;23.244;2023-02-14T08:28:26;95828.16;;;4.66;66.27
11415;BME280;5763;42.714;23.244;2023-02-14T08:30:54;95827.38;;;4.69;66.01
11415;BME280;5763;42.714;23.244;2023-02-14T08:33:21;95811.09;;;4.65;66.06
11415;BME280;5763;42.714;23.244;2023-02-14T08:35:49;95809.94;;;4.59;66.53
11415;BME280;5763;42.714;23.244;2023-02-14T08:38:16;95809.16;;;4.59;66.71
11415;BME280;5763;42.714;23.244;2023-02-14T08:40:44;95808.38;;;4.58;66.71
11415;BME280;5763;42.714;23.244;2023-02-14T08:43:12;95821.56;;;4.74;66.64
11415;BME280;5763;42.714;23.244;2023-02-14T08:45:39;95816.91;;;4.67;66.61
11415;BME280;5763;42.714;23.244;2023-02-14T08:48:07;95823.50;;;4.73;66.89
11415;BME280;5763;42.714;23.244;2023-02-14T08:50:35;95819.66;;;4.78;66.83
11415;BME280;5763;42.714;23.244;2023-02-14T08:53:05;95819.25;;;4.69;67.07
11415;BME280;5763;42.714;23.244;2023-02-14T08:55:33;95824.66;;;4.62;67.23
11415;BME280;5763;42.714;23.244;2023-02-14T08:58:01;95810.31;;;4.58;67.25
11415;BME280;5763;42.714;23.244;2023-02-14T09:00:29;95817.66;;;4.54;67.85
11415;BME280;5763;42.714;23.244;2023-02-14T09:02:56;95832.38;;;4.49;67.99
11415;BME280;5763;42.714;23.244;2023-02-14T09:05:23;95827.75;;;4.60;67.62
11415;BME280;5763;42.714;23.244;2023-02-14T09:07:50;95799.44;;;4.47;67.49
11415;BME280;5763;42.714;23.244;2023-02-14T09:10:17;95807.59;;;4.54;67.51
11415;BME280;5763;42.714;23.244;2023-02-14T09:12:44;95811.47;;;4.53;67.44
11415;BME280;5763;42.714;23.244;2023-02-14T09:15:12;95813.41;;;4.56;67.62
11415;BME280;5763;42.714;23.244;2023-02-14T09:17:39;95802.56;;;4.56;67.26
11415;BME280;5763;42.714;23.244;2023-02-14T09:20:07;95811.84;;;4.55;67.54
11415;BME280;5763;42.714;23.244;2023-02-14T09:22:35;95809.50;;;4.50;67.80
11415;BME280;5763;42.714;23.244;2023-02-14T09:25:01;95802.56;;;4.60;67.58
11415;BME280;5763;42.714;23.244;2023-02-14T09:27:29;95806.06;;;4.57;67.70
11415;BME280;5763;42.714;23.244;2023-02-14T09:29:56;95813.41;;;4.53;67.40
11415;BME280;5763;42.714;23.244;2023-02-14T09:32:24;95811.84;;;4.59;67.45
11415;BME280;5763;42.714;23.244;2023-02-14T09:34:53;95808.75;;;4.57;67.66
11415;BME280;5763;42.714;23.244;2023-02-14T09:37:37;95753.75;;;4.35;67.38
11415;BME280;5763;42.714;23.244;2023-02-14T09:40:22;95815.78;;;4.72;66.80
11415;BME280;5763;42.714;23.244;2023-02-14T09:42:59;95794.06;;;4.65;66.69
11415;BME280;5763;42.714;23.244;2023-02-14T09:45:29;95794.38;;;4.42;67.53
11415;BME280;5763;42.714;23.244;2023-02-14T09:48:01;95808.75;;;4.57;67.29
11415;BME280;5763;42.714;23.244;2023-02-14T09:50:31;95797.94;;;4.57;67.17
11415;BME280;5763;42.714;23.244;2023-02-14T09:53:02;95789.78;;;4.53;67.20
11415;BME280;5763;42.714;23.244;2023-02-14T09:55:37;95787.41;;;4.41;67.57
11415;BME280;5763;42.714;23.244;2023-02-14T09:58:11;95792.47;;;4.43;67.77
11415;BME280;5763;42.714;23.244;2023-02-14T10:00:44;95776.19;;;4.39;68.00
11415;BME280;5763;42.714;23.244;2023-02-14T10:06:13;95789.38;;;4.41;67.64
11415;BME280;5763;42.714;23.244;2023-02-14T10:08:50;95790.16;;;4.48;67.63
11415;BME280;5763;42.714;23.244;2023-02-14T10:11:21;95783.22;;;4.58;66.97
11415;BME280;5763;42.714;23.244;2023-02-14T10:13:52;95770.81;;;4.57;66.34
11415;BME280;5763;42.714;23.244;2023-02-14T10:16:23;95770.81;;;4.64;66.40
11415;BME280;5763;42.714;23.244;2023-02-14T10:18:56;95776.63;;;4.59;66.07
11415;BME280;5763;42.714;23.244;2023-02-14T10:21:30;95778.56;;;4.72;65.94
11415;BME280;5763;42.714;23.244;2023-02-14T10:24:09;95775.88;;;4.72;65.72
11415;BME280;5763;42.714;23.244;2023-02-14T10:26:38;95775.09;;;4.68;65.56
11415;BME280;5763;42.714;23.244;2023-02-14T10:29:07;95775.47;;;4.70;65.65
11415;BME280;5763;42.714;23.244;2023-02-14T10:31:42;95765.81;;;4.73;65.86
11415;BME280;5763;42.714;23.244;2023-02-14T10:34:19;95767.75;;;4.79;65.10
11415;BME280;5763;42.714;23.244;2023-02-14T10:36:58;95771.59;;;4.78;65.40
11415;BME280;5763;42.714;23.244;2023-02-14T10:42:32;95777.41;;;4.59;65.42
11415;BME280;5763;42.714;23.244;2023-02-14T10:45:13;95767.34;;;4.63;65.32
11415;BME280;5763;42.714;23.244;2023-02-14T10:47:46;95762.69;;;4.57;65.42
11415;BME280;5763;42.714;23.244;2023-02-14T10:50:22;95753.78;;;4.60;65.63
11415;BME280;5763;42.714;23.244;2023-02-14T10:52:57;95784.75;;;4.48;65.76
11415;BME280;5763;42.714;23.244;2023-02-14T10:55:39;95773.88;;;4.45;65.51
11415;BME280;5763;42.714;23.244;2023-02-14T10:58:12;95755.69;;;4.52;65.36
11415;BME280;5763;42.714;23.244;2023-02-14T11:00:52;95747.19;;;4.57;65.08
11415;BME280;5763;42.714;23.244;2023-02-14T11:03:20;95751.06;;;4.49;64.84
11415;BME280;5763;42.714;23.244;2023-02-14T11:05:49;95746.81;;;4.48;64.82
11415;BME280;5763;42.714;23.244;2023-02-14T11:08:23;95748.31;;;4.35;65.04
11415;BME280;5763;42.714;23.244;2023-02-14T11:10:51;95745.59;;;4.42;64.97
11415;BME280;5763;42.714;23.244;2023-02-14T11:13:27;95751.81;;;4.46;64.90
11415;BME280;5763;42.714;23.244;2023-02-14T11:15:58;95748.72;;;4.51;64.56
11415;BME280;5763;42.714;23.244;2023-02-14T11:18:26;95746.44;;;4.57;63.80
11415;BME280;5763;42.714;23.244;2023-02-14T11:21:07;95748.34;;;4.56;63.46
11415;BME280;5763;42.714;23.244;2023-02-14T11:23:37;95735.56;;;4.46;63.73
11415;BME280;5763;42.714;23.244;2023-02-14T11:26:09;95743.34;;;4.58;63.41
11415;BME280;5763;42.714;23.244;2023-02-14T11:28:50;95741.00;;;4.67;62.31
11415;BME280;5763;42.714;23.244;2023-02-14T11:31:29;95730.56;;;4.83;62.34
11415;BME280;5763;42.714;23.244;2023-02-14T11:33:57;95725.94;;;4.77;61.50
11415;BME280;5763;42.714;23.244;2023-02-14T11:36:26;95735.19;;;4.72;61.63
11415;BME280;5763;42.714;23.244;2023-02-14T11:38:57;95722.44;;;4.80;61.34
11415;BME280;5763;42.714;23.244;2023-02-14T11:41:45;95721.66;;;4.90;61.00
11415;BME280;5763;42.714;23.244;2023-02-14T11:44:15;95731.34;;;5.01;60.54
11415;BME280;5763;42.714;23.244;2023-02-14T11:46:47;95725.53;;;4.89;60.33
11415;BME280;5763;42.714;23.244;2023-02-14T11:49:28;95717.41;;;4.89;60.16
11415;BME280;5763;42.714;23.244;2023-02-14T11:51:58;95721.28;;;4.91;60.45
11415;BME280;5763;42.714;23.244;2023-02-14T11:54:33;95715.06;;;4.87;60.45
11415;BME280;5763;42.714;23.244;2023-02-14T11:57:03;95709.63;;;4.91;60.42
11415;BME280;5763;42.714;23.244;2023-02-14T11:59:36;95707.31;;;5.00;60.54
11415;BME280;5763;42.714;23.244;2023-02-14T12:02:17;95716.22;;;5.00;59.99
11415;BME280;5763;42.714;23.244;2023-02-14T12:04:48;95708.84;;;5.11;60.04
11415;BME280;5763;42.714;23.244;2023-02-14T12:07:22;95703.81;;;5.10;60.16
11415;BME280;5763;42.714;23.244;2023-02-14T12:10:18;95703.81;;;5.10;60.18
11415;BME280;5763;42.714;23.244;2023-02-14T12:12:50;95698.00;;;5.01;60.22
11415;BME280;5763;42.714;23.244;2023-02-14T12:21:38;95694.94;;;4.92;60.65
11415;BME280;5763;42.714;23.244;2023-02-14T12:24:16;95697.25;;;4.90;61.14
11415;BME280;5763;42.714;23.244;2023-02-14T12:26:53;95688.72;;;5.05;60.63
11415;BME280;5763;42.714;23.244;2023-02-14T12:29:23;95693.00;;;4.99;60.84
11415;BME280;5763;42.714;23.244;2023-02-14T12:31:55;95676.72;;;5.03;60.51
11415;BME280;5763;42.714;23.244;2023-02-14T12:34:24;95677.47;;;5.07;60.32
11415;BME280;5763;42.714;23.244;2023-02-14T12:37:06;95676.31;;;5.04;61.00
11415;BME280;5763;42.714;23.244;2023-02-14T12:39:43;95644.94;;;4.96;60.35
11415;BME280;5763;42.714;23.244;2023-02-14T12:42:24;95674.00;;;5.06;60.50
11415;BME280;5763;42.714;23.244;2023-02-14T12:45:03;95684.06;;;5.13;60.68
11415;BME280;5763;42.714;23.244;2023-02-14T12:47:42;95668.94;;;5.12;60.47
11415;BME280;5763;42.714;23.244;2023-02-14T12:50:28;95662.75;;;5.11;60.98
11415;BME280;5763;42.714;23.244;2023-02-14T12:56:00;95668.53;;;5.20;60.48
11415;BME280;5763;42.714;23.244;2023-02-14T12:58:43;95665.81;;;5.13;61.26
11415;BME280;5763;42.714;23.244;2023-02-14T13:01:34;95666.97;;;5.19;61.36
11415;BME280;5763;42.714;23.244;2023-02-14T13:07:04;95665.81;;;5.24;61.39
11415;BME280;5763;42.714;23.244;2023-02-14T13:09:40;95660.81;;;5.15;61.43
11415;BME280;5763;42.714;23.244;2023-02-14T13:12:24;95664.66;;;5.14;61.66
11415;BME280;5763;42.714;23.244;2023-02-14T13:15:01;95659.63;;;5.20;61.65
11415;BME280;5763;42.714;23.244;2023-02-14T13:17:39;95646.81;;;5.24;61.76
11415;BME280;5763;42.714;23.244;2023-02-14T13:20:30;95647.19;;;5.29;61.58
11415;BME280;5763;42.714;23.244;2023-02-14T13:23:02;95667.75;;;5.30;61.66
11415;BME280;5763;42.714;23.244;2023-02-14T13:25:31;95661.50;;;5.33;61.94
11415;BME280;5763;42.714;23.244;2023-02-14T13:28:05;95651.47;;;5.30;61.57
11415;BME280;5763;42.714;23.244;2023-02-14T13:30:34;95646.06;;;5.16;61.76
11415;BME280;5763;42.714;23.244;2023-02-14T13:33:05;95647.19;;;5.29;62.11
11415;BME280;5763;42.714;23.244;2023-02-14T13:35:33;95644.47;;;5.36;61.97
11415;BME280;5763;42.714;23.244;2023-02-14T13:38:02;95641.34;;;5.34;61.73
11415;BME280;5763;42.714;23.244;2023-02-14T13:40:31;95644.44;;;5.43;61.70
11415;BME280;5763;42.714;23.244;2023-02-14T13:42:59;95639.03;;;5.36;61.80
11415;BME280;5763;42.714;23.244;2023-02-14T13:45:51;95642.91;;;5.35;61.94
11415;BME280;5763;42.714;23.244;2023-02-14T13:48:19;95645.22;;;5.33;62.10
11415;BME280;5763;42.714;23.244;2023-02-14T13:50:52;95645.22;;;5.37;61.50
11415;BME280;5763;42.714;23.244;2023-02-14T13:53:38;95637.81;;;5.44;61.57
11415;BME280;5763;42.714;23.244;2023-02-14T13:56:30;95650.22;;;5.49;61.12
11415;BME280;5763;42.714;23.244;2023-02-14T13:59:00;95652.94;;;5.49;60.99